KCLL/CLL METAR and TAF weather

Enter ICAO airport designator
Station Type Date Time Source
KCLL METAR 2019/02/23 16:53 UTC NOAA

KCLL 231653Z 28012G19KT 10SM FEW065 18/06 A2994 RMK AO2 SLP134 T01830061


Station Type Date Time Source
KCLL Decoded METAR 2019/02/23 16:53 UTC NOAA

COLLEGE STN EASTERWOOD FIELD, TX, United States (KCLL) 30-35N 096-22W 96M
Feb 23, 2019 - 11:53 AM EST / 2019.02.23 1653 UTC
Wind: from the W (280 degrees) at 14 MPH (12 KT) gusting to 22 MPH (19 KT):0
Visibility: 10 mile(s):0
Sky conditions: mostly clear
Temperature: 64.9 F (18.3 C)
Dew Point: 43.0 F (6.1 C)
Relative Humidity: 44%
Pressure (altimeter): 29.94 in. Hg (1013 hPa)
ob: KCLL 231653Z 28012G19KT 10SM FEW065 18/06 A2994 RMK AO2 SLP134 T01830061
cycle: 17

Station Type Date Time Source
KCLL TAF 2019/02/23 18:24 UTC NOAA

TAF KCLL 231721Z 2318/2418 30010G17KT P6SM SCT250
FM232300 26009KT P6SM SCT250
FM240100 24006KT P6SM SCT250
FM240600 35010KT P6SM SKC
FM241600 02010KT P6SM SCT250


Example: see airport list